sensor_id;sensor_type;location;lat;lon;timestamp;P1;durP1;ratioP1;P2;durP2;ratioP2
45043;SDS011;30784;48.490;9.688;2023-06-04T00:02:16;8.95;;;3.17;;
45043;SDS011;30784;48.490;9.688;2023-06-04T00:04:41;7.30;;;2.95;;
45043;SDS011;30784;48.490;9.688;2023-06-04T00:07:07;6.88;;;2.80;;
45043;SDS011;30784;48.490;9.688;2023-06-04T00:09:32;9.35;;;4.43;;
45043;SDS011;30784;48.490;9.688;2023-06-04T00:11:58;10.00;;;4.50;;
45043;SDS011;30784;48.490;9.688;2023-06-04T00:14:24;10.80;;;4.35;;
45043;SDS011;30784;48.490;9.688;2023-06-04T00:16:49;7.18;;;3.00;;
45043;SDS011;30784;48.490;9.688;2023-06-04T00:19:15;7.63;;;2.85;;
45043;SDS011;30784;48.490;9.688;2023-06-04T00:21:40;11.68;;;2.88;;
45043;SDS011;30784;48.490;9.688;2023-06-04T00:24:06;6.53;;;2.55;;
45043;SDS011;30784;48.490;9.688;2023-06-04T00:26:32;7.22;;;2.90;;
45043;SDS011;30784;48.490;9.688;2023-06-04T00:28:57;7.68;;;3.10;;
45043;SDS011;30784;48.490;9.688;2023-06-04T00:31:23;6.05;;;2.08;;
45043;SDS011;30784;48.490;9.688;2023-06-04T00:33:49;9.40;;;2.60;;
45043;SDS011;30784;48.490;9.688;2023-06-04T00:36:15;7.53;;;2.67;;
45043;SDS011;30784;48.490;9.688;2023-06-04T00:38:41;6.88;;;2.60;;
45043;SDS011;30784;48.490;9.688;2023-06-04T00:41:06;8.50;;;2.45;;
45043;SDS011;30784;48.490;9.688;2023-06-04T00:43:32;6.38;;;2.45;;
45043;SDS011;30784;48.490;9.688;2023-06-04T00:45:58;11.98;;;7.53;;
45043;SDS011;30784;48.490;9.688;2023-06-04T00:48:24;9.95;;;4.80;;
45043;SDS011;30784;48.490;9.688;2023-06-04T00:50:53;7.13;;;3.10;;
45043;SDS011;30784;48.490;9.688;2023-06-04T00:53:20;7.05;;;2.67;;
45043;SDS011;30784;48.490;9.688;2023-06-04T00:55:47;6.97;;;2.20;;
45043;SDS011;30784;48.490;9.688;2023-06-04T00:58:13;7.38;;;2.22;;
45043;SDS011;30784;48.490;9.688;2023-06-04T01:00:40;6.95;;;1.80;;
45043;SDS011;30784;48.490;9.688;2023-06-04T01:03:08;5.95;;;2.03;;
45043;SDS011;30784;48.490;9.688;2023-06-04T01:05:48;5.78;;;2.10;;
45043;SDS011;30784;48.490;9.688;2023-06-04T01:08:21;5.90;;;2.17;;
45043;SDS011;30784;48.490;9.688;2023-06-04T01:10:55;7.50;;;2.20;;
45043;SDS011;30784;48.490;9.688;2023-06-04T01:13:21;6.13;;;1.80;;
45043;SDS011;30784;48.490;9.688;2023-06-04T01:15:47;5.20;;;1.85;;
45043;SDS011;30784;48.490;9.688;2023-06-04T01:18:17;5.53;;;1.83;;
45043;SDS011;30784;48.490;9.688;2023-06-04T01:20:56;5.95;;;1.85;;
45043;SDS011;30784;48.490;9.688;2023-06-04T01:26:09;5.10;;;1.98;;
45043;SDS011;30784;48.490;9.688;2023-06-04T01:28:35;5.65;;;1.90;;
45043;SDS011;30784;48.490;9.688;2023-06-04T01:31:02;5.20;;;2.10;;
45043;SDS011;30784;48.490;9.688;2023-06-04T01:33:29;5.93;;;2.15;;
45043;SDS011;30784;48.490;9.688;2023-06-04T01:35:55;7.82;;;1.90;;
45043;SDS011;30784;48.490;9.688;2023-06-04T01:38:21;5.28;;;1.73;;
45043;SDS011;30784;48.490;9.688;2023-06-04T01:40:46;6.95;;;1.77;;
45043;SDS011;30784;48.490;9.688;2023-06-04T01:43:12;4.93;;;1.70;;
45043;SDS011;30784;48.490;9.688;2023-06-04T01:45:38;5.85;;;1.80;;
45043;SDS011;30784;48.490;9.688;2023-06-04T01:48:04;5.18;;;1.77;;
45043;SDS011;30784;48.490;9.688;2023-06-04T01:50:30;4.90;;;1.55;;
45043;SDS011;30784;48.490;9.688;2023-06-04T01:52:56;5.82;;;1.88;;
45043;SDS011;30784;48.490;9.688;2023-06-04T01:55:22;5.55;;;1.67;;
45043;SDS011;30784;48.490;9.688;2023-06-04T01:57:50;6.05;;;1.98;;
45043;SDS011;30784;48.490;9.688;2023-06-04T02:00:16;5.32;;;1.70;;
45043;SDS011;30784;48.490;9.688;2023-06-04T02:02:42;5.20;;;1.90;;
45043;SDS011;30784;48.490;9.688;2023-06-04T02:05:09;6.63;;;1.73;;
45043;SDS011;30784;48.490;9.688;2023-06-04T02:07:35;6.68;;;1.92;;
45043;SDS011;30784;48.490;9.688;2023-06-04T02:10:04;6.00;;;1.80;;
45043;SDS011;30784;48.490;9.688;2023-06-04T02:12:31;7.63;;;2.10;;
45043;SDS011;30784;48.490;9.688;2023-06-04T02:14:56;5.57;;;2.00;;
45043;SDS011;30784;48.490;9.688;2023-06-04T02:17:22;7.28;;;2.10;;
45043;SDS011;30784;48.490;9.688;2023-06-04T02:19:47;5.40;;;1.85;;
45043;SDS011;30784;48.490;9.688;2023-06-04T02:22:19;5.78;;;1.88;;
45043;SDS011;30784;48.490;9.688;2023-06-04T02:24:45;5.38;;;1.85;;
45043;SDS011;30784;48.490;9.688;2023-06-04T02:27:13;6.72;;;2.10;;
45043;SDS011;30784;48.490;9.688;2023-06-04T02:29:39;6.65;;;1.90;;
45043;SDS011;30784;48.490;9.688;2023-06-04T02:32:06;5.68;;;1.80;;
45043;SDS011;30784;48.490;9.688;2023-06-04T02:34:32;4.60;;;1.40;;
45043;SDS011;30784;48.490;9.688;2023-06-04T02:36:59;6.13;;;1.75;;
45043;SDS011;30784;48.490;9.688;2023-06-04T02:39:25;5.13;;;1.65;;
45043;SDS011;30784;48.490;9.688;2023-06-04T02:41:50;4.22;;;1.33;;
45043;SDS011;30784;48.490;9.688;2023-06-04T02:44:16;5.72;;;1.50;;
45043;SDS011;30784;48.490;9.688;2023-06-04T02:46:41;4.60;;;1.55;;
45043;SDS011;30784;48.490;9.688;2023-06-04T02:49:09;4.10;;;1.30;;
45043;SDS011;30784;48.490;9.688;2023-06-04T02:54:04;4.93;;;1.50;;
45043;SDS011;30784;48.490;9.688;2023-06-04T02:56:30;5.25;;;1.40;;
45043;SDS011;30784;48.490;9.688;2023-06-04T02:58:55;4.72;;;1.45;;
45043;SDS011;30784;48.490;9.688;2023-06-04T03:01:21;5.72;;;1.48;;
45043;SDS011;30784;48.490;9.688;2023-06-04T03:03:48;5.18;;;1.60;;
45043;SDS011;30784;48.490;9.688;2023-06-04T03:06:14;5.38;;;1.70;;
45043;SDS011;30784;48.490;9.688;2023-06-04T03:08:41;6.35;;;1.50;;
45043;SDS011;30784;48.490;9.688;2023-06-04T03:11:07;4.82;;;1.50;;
45043;SDS011;30784;48.490;9.688;2023-06-04T03:13:33;4.65;;;1.70;;
45043;SDS011;30784;48.490;9.688;2023-06-04T03:15:58;4.65;;;1.48;;
45043;SDS011;30784;48.490;9.688;2023-06-04T03:18:30;4.90;;;1.48;;
45043;SDS011;30784;48.490;9.688;2023-06-04T03:20:56;5.05;;;1.63;;
45043;SDS011;30784;48.490;9.688;2023-06-04T03:23:22;4.55;;;1.58;;
45043;SDS011;30784;48.490;9.688;2023-06-04T03:25:47;4.80;;;1.60;;
45043;SDS011;30784;48.490;9.688;2023-06-04T03:28:13;5.35;;;1.45;;
45043;SDS011;30784;48.490;9.688;2023-06-04T03:30:39;4.70;;;1.50;;
45043;SDS011;30784;48.490;9.688;2023-06-04T03:33:05;4.85;;;1.38;;
45043;SDS011;30784;48.490;9.688;2023-06-04T03:35:32;5.28;;;1.50;;
45043;SDS011;30784;48.490;9.688;2023-06-04T03:37:58;3.90;;;1.23;;
45043;SDS011;30784;48.490;9.688;2023-06-04T03:40:23;5.30;;;1.50;;
45043;SDS011;30784;48.490;9.688;2023-06-04T03:42:49;4.03;;;1.38;;
45043;SDS011;30784;48.490;9.688;2023-06-04T03:45:14;4.22;;;1.52;;
45043;SDS011;30784;48.490;9.688;2023-06-04T03:47:40;4.70;;;1.40;;
45043;SDS011;30784;48.490;9.688;2023-06-04T03:50:05;4.00;;;1.30;;
45043;SDS011;30784;48.490;9.688;2023-06-04T03:52:31;5.70;;;1.50;;
45043;SDS011;30784;48.490;9.688;2023-06-04T03:54:58;4.28;;;1.48;;
45043;SDS011;30784;48.490;9.688;2023-06-04T03:57:25;5.10;;;1.60;;
45043;SDS011;30784;48.490;9.688;2023-06-04T03:59:50;5.40;;;1.58;;
45043;SDS011;30784;48.490;9.688;2023-06-04T04:02:16;5.00;;;1.30;;
45043;SDS011;30784;48.490;9.688;2023-06-04T04:04:43;5.15;;;1.50;;
45043;SDS011;30784;48.490;9.688;2023-06-04T04:07:08;5.88;;;1.42;;
45043;SDS011;30784;48.490;9.688;2023-06-04T04:09:35;3.92;;;1.40;;
45043;SDS011;30784;48.490;9.688;2023-06-04T04:12:01;5.32;;;1.40;;
45043;SDS011;30784;48.490;9.688;2023-06-04T04:14:27;5.00;;;1.30;;
45043;SDS011;30784;48.490;9.688;2023-06-04T04:16:53;5.75;;;1.55;;
45043;SDS011;30784;48.490;9.688;2023-06-04T04:19:18;6.57;;;2.30;;
45043;SDS011;30784;48.490;9.688;2023-06-04T04:21:44;5.13;;;1.70;;
45043;SDS011;30784;48.490;9.688;2023-06-04T04:24:21;5.75;;;1.65;;
45043;SDS011;30784;48.490;9.688;2023-06-04T04:26:50;6.60;;;1.50;;
45043;SDS011;30784;48.490;9.688;2023-06-04T04:29:22;5.85;;;1.60;;
45043;SDS011;30784;48.490;9.688;2023-06-04T04:31:50;4.95;;;1.50;;
45043;SDS011;30784;48.490;9.688;2023-06-04T04:34:16;5.40;;;1.55;;
45043;SDS011;30784;48.490;9.688;2023-06-04T04:36:45;4.95;;;1.65;;
45043;SDS011;30784;48.490;9.688;2023-06-04T04:39:26;6.88;;;1.83;;
45043;SDS011;30784;48.490;9.688;2023-06-04T04:41:53;4.78;;;1.60;;
45043;SDS011;30784;48.490;9.688;2023-06-04T04:44:19;6.22;;;1.60;;
45043;SDS011;30784;48.490;9.688;2023-06-04T04:46:45;5.47;;;1.77;;
45043;SDS011;30784;48.490;9.688;2023-06-04T04:49:12;5.47;;;1.70;;
45043;SDS011;30784;48.490;9.688;2023-06-04T04:51:38;6.90;;;1.80;;
45043;SDS011;30784;48.490;9.688;2023-06-04T04:54:03;4.55;;;1.67;;
45043;SDS011;30784;48.490;9.688;2023-06-04T04:56:32;4.18;;;1.35;;
45043;SDS011;30784;48.490;9.688;2023-06-04T04:58:59;4.60;;;1.50;;
45043;SDS011;30784;48.490;9.688;2023-06-04T05:01:24;5.32;;;1.70;;
45043;SDS011;30784;48.490;9.688;2023-06-04T05:03:50;4.63;;;1.42;;
45043;SDS011;30784;48.490;9.688;2023-06-04T05:06:16;6.55;;;1.50;;
45043;SDS011;30784;48.490;9.688;2023-06-04T05:08:41;4.50;;;1.50;;
45043;SDS011;30784;48.490;9.688;2023-06-04T05:11:07;5.97;;;1.67;;
45043;SDS011;30784;48.490;9.688;2023-06-04T05:13:32;4.90;;;1.40;;
45043;SDS011;30784;48.490;9.688;2023-06-04T05:15:58;5.18;;;1.50;;
45043;SDS011;30784;48.490;9.688;2023-06-04T05:18:24;5.03;;;1.50;;
45043;SDS011;30784;48.490;9.688;2023-06-04T05:20:53;5.55;;;1.80;;
45043;SDS011;30784;48.490;9.688;2023-06-04T05:23:19;5.35;;;1.63;;
45043;SDS011;30784;48.490;9.688;2023-06-04T05:25:45;5.43;;;1.67;;
45043;SDS011;30784;48.490;9.688;2023-06-04T05:28:13;6.38;;;1.73;;
45043;SDS011;30784;48.490;9.688;2023-06-04T05:30:39;5.97;;;1.88;;
45043;SDS011;30784;48.490;9.688;2023-06-04T05:33:06;7.07;;;2.45;;
45043;SDS011;30784;48.490;9.688;2023-06-04T05:35:42;6.53;;;2.17;;
45043;SDS011;30784;48.490;9.688;2023-06-04T05:38:11;6.47;;;2.13;;
45043;SDS011;30784;48.490;9.688;2023-06-04T05:40:42;7.47;;;2.08;;
45043;SDS011;30784;48.490;9.688;2023-06-04T05:43:07;5.65;;;2.00;;
45043;SDS011;30784;48.490;9.688;2023-06-04T05:45:33;5.75;;;2.00;;
45043;SDS011;30784;48.490;9.688;2023-06-04T05:47:59;5.13;;;1.67;;
45043;SDS011;30784;48.490;9.688;2023-06-04T05:50:24;7.30;;;2.03;;
45043;SDS011;30784;48.490;9.688;2023-06-04T05:52:50;5.95;;;2.03;;
45043;SDS011;30784;48.490;9.688;2023-06-04T05:55:15;5.95;;;1.90;;
45043;SDS011;30784;48.490;9.688;2023-06-04T05:57:41;5.28;;;1.75;;
45043;SDS011;30784;48.490;9.688;2023-06-04T06:00:07;5.80;;;1.98;;
45043;SDS011;30784;48.490;9.688;2023-06-04T06:02:36;6.53;;;1.70;;
45043;SDS011;30784;48.490;9.688;2023-06-04T06:05:03;5.15;;;1.95;;
45043;SDS011;30784;48.490;9.688;2023-06-04T06:07:30;6.00;;;2.00;;
45043;SDS011;30784;48.490;9.688;2023-06-04T06:09:56;5.10;;;1.85;;
45043;SDS011;30784;48.490;9.688;2023-06-04T06:12:21;5.47;;;1.80;;
45043;SDS011;30784;48.490;9.688;2023-06-04T06:14:47;4.68;;;1.52;;
45043;SDS011;30784;48.490;9.688;2023-06-04T06:17:13;5.95;;;1.90;;
45043;SDS011;30784;48.490;9.688;2023-06-04T06:19:39;5.80;;;1.90;;
45043;SDS011;30784;48.490;9.688;2023-06-04T06:22:04;6.60;;;2.08;;
45043;SDS011;30784;48.490;9.688;2023-06-04T06:24:30;7.47;;;1.95;;
45043;SDS011;30784;48.490;9.688;2023-06-04T06:26:55;5.55;;;1.90;;
45043;SDS011;30784;48.490;9.688;2023-06-04T06:29:21;6.03;;;2.13;;
45043;SDS011;30784;48.490;9.688;2023-06-04T06:31:46;5.55;;;1.90;;
45043;SDS011;30784;48.490;9.688;2023-06-04T06:34:12;5.78;;;2.00;;
45043;SDS011;30784;48.490;9.688;2023-06-04T06:36:38;6.00;;;2.20;;
45043;SDS011;30784;48.490;9.688;2023-06-04T06:39:04;8.40;;;1.98;;
45043;SDS011;30784;48.490;9.688;2023-06-04T06:41:29;7.53;;;2.25;;
45043;SDS011;30784;48.490;9.688;2023-06-04T06:43:56;6.75;;;2.10;;
45043;SDS011;30784;48.490;9.688;2023-06-04T06:46:22;5.47;;;1.92;;
45043;SDS011;30784;48.490;9.688;2023-06-04T06:48:47;8.40;;;2.17;;
45043;SDS011;30784;48.490;9.688;2023-06-04T06:51:13;6.13;;;2.22;;
45043;SDS011;30784;48.490;9.688;2023-06-04T06:53:39;7.70;;;2.47;;
45043;SDS011;30784;48.490;9.688;2023-06-04T06:56:05;6.90;;;2.40;;
45043;SDS011;30784;48.490;9.688;2023-06-04T06:58:31;6.25;;;2.20;;
45043;SDS011;30784;48.490;9.688;2023-06-04T07:00:56;5.55;;;2.20;;
45043;SDS011;30784;48.490;9.688;2023-06-04T07:03:22;6.10;;;2.33;;
45043;SDS011;30784;48.490;9.688;2023-06-04T07:05:47;6.63;;;2.10;;
45043;SDS011;30784;48.490;9.688;2023-06-04T07:08:15;7.85;;;1.83;;
45043;SDS011;30784;48.490;9.688;2023-06-04T07:10:41;6.20;;;2.20;;
45043;SDS011;30784;48.490;9.688;2023-06-04T07:13:07;6.80;;;2.47;;
45043;SDS011;30784;48.490;9.688;2023-06-04T07:15:32;7.25;;;2.20;;
45043;SDS011;30784;48.490;9.688;2023-06-04T07:17:58;6.25;;;2.10;;
45043;SDS011;30784;48.490;9.688;2023-06-04T07:20:23;5.80;;;2.10;;
45043;SDS011;30784;48.490;9.688;2023-06-04T07:22:49;6.43;;;2.60;;
45043;SDS011;30784;48.490;9.688;2023-06-04T07:25:14;6.35;;;2.00;;
45043;SDS011;30784;48.490;9.688;2023-06-04T07:27:40;5.93;;;2.13;;
45043;SDS011;30784;48.490;9.688;2023-06-04T07:30:06;7.07;;;2.10;;
45043;SDS011;30784;48.490;9.688;2023-06-04T07:32:32;6.30;;;2.20;;
45043;SDS011;30784;48.490;9.688;2023-06-04T07:34:58;7.57;;;1.95;;
45043;SDS011;30784;48.490;9.688;2023-06-04T07:37:23;8.25;;;2.50;;
45043;SDS011;30784;48.490;9.688;2023-06-04T07:39:49;8.25;;;2.50;;
45043;SDS011;30784;48.490;9.688;2023-06-04T07:42:15;5.05;;;2.03;;
45043;SDS011;30784;48.490;9.688;2023-06-04T07:44:40;4.53;;;1.70;;
45043;SDS011;30784;48.490;9.688;2023-06-04T07:47:06;6.10;;;2.10;;
45043;SDS011;30784;48.490;9.688;2023-06-04T07:49:32;6.78;;;2.50;;
45043;SDS011;30784;48.490;9.688;2023-06-04T07:51:57;7.30;;;2.13;;
45043;SDS011;30784;48.490;9.688;2023-06-04T07:54:23;6.40;;;2.08;;
45043;SDS011;30784;48.490;9.688;2023-06-04T07:56:48;7.05;;;1.83;;
45043;SDS011;30784;48.490;9.688;2023-06-04T07:59:14;5.18;;;1.92;;
45043;SDS011;30784;48.490;9.688;2023-06-04T08:01:40;6.25;;;1.90;;
45043;SDS011;30784;48.490;9.688;2023-06-04T08:04:05;6.20;;;1.85;;
45043;SDS011;30784;48.490;9.688;2023-06-04T08:06:31;5.40;;;1.90;;
45043;SDS011;30784;48.490;9.688;2023-06-04T08:08:56;6.43;;;1.77;;
45043;SDS011;30784;48.490;9.688;2023-06-04T08:11:22;5.70;;;1.88;;
45043;SDS011;30784;48.490;9.688;2023-06-04T08:13:47;6.72;;;2.25;;
45043;SDS011;30784;48.490;9.688;2023-06-04T08:16:13;5.53;;;1.98;;
45043;SDS011;30784;48.490;9.688;2023-06-04T08:18:39;6.25;;;2.00;;
45043;SDS011;30784;48.490;9.688;2023-06-04T08:21:05;7.55;;;2.05;;
45043;SDS011;30784;48.490;9.688;2023-06-04T08:23:33;7.00;;;2.13;;
45043;SDS011;30784;48.490;9.688;2023-06-04T08:25:59;7.95;;;2.20;;
45043;SDS011;30784;48.490;9.688;2023-06-04T08:28:24;5.90;;;2.08;;
45043;SDS011;30784;48.490;9.688;2023-06-04T08:30:50;7.05;;;2.10;;
45043;SDS011;30784;48.490;9.688;2023-06-04T08:33:16;5.90;;;2.10;;
45043;SDS011;30784;48.490;9.688;2023-06-04T08:35:41;8.05;;;2.20;;
45043;SDS011;30784;48.490;9.688;2023-06-04T08:38:07;6.50;;;2.10;;
45043;SDS011;30784;48.490;9.688;2023-06-04T08:40:32;5.32;;;1.90;;
45043;SDS011;30784;48.490;9.688;2023-06-04T08:42:59;5.90;;;1.90;;
45043;SDS011;30784;48.490;9.688;2023-06-04T08:45:26;8.10;;;2.22;;
45043;SDS011;30784;48.490;9.688;2023-06-04T08:47:52;6.20;;;2.00;;
45043;SDS011;30784;48.490;9.688;2023-06-04T08:50:19;7.22;;;2.35;;
45043;SDS011;30784;48.490;9.688;2023-06-04T08:52:49;6.30;;;2.20;;
45043;SDS011;30784;48.490;9.688;2023-06-04T08:55:18;6.65;;;2.80;;
45043;SDS011;30784;48.490;9.688;2023-06-04T08:57:44;7.22;;;2.40;;
45043;SDS011;30784;48.490;9.688;2023-06-04T09:00:12;6.20;;;2.30;;
45043;SDS011;30784;48.490;9.688;2023-06-04T09:02:38;6.07;;;2.15;;
45043;SDS011;30784;48.490;9.688;2023-06-04T09:05:04;7.57;;;2.30;;
45043;SDS011;30784;48.490;9.688;2023-06-04T09:07:31;5.85;;;2.33;;
45043;SDS011;30784;48.490;9.688;2023-06-04T09:10:05;6.22;;;2.40;;
45043;SDS011;30784;48.490;9.688;2023-06-04T09:12:33;6.38;;;2.50;;
45043;SDS011;30784;48.490;9.688;2023-06-04T09:15:03;8.98;;;2.80;;
45043;SDS011;30784;48.490;9.688;2023-06-04T09:17:28;8.07;;;2.55;;
45043;SDS011;30784;48.490;9.688;2023-06-04T09:19:54;5.70;;;2.40;;
45043;SDS011;30784;48.490;9.688;2023-06-04T09:22:31;6.93;;;2.25;;
45043;SDS011;30784;48.490;9.688;2023-06-04T09:24:59;6.20;;;2.40;;
45043;SDS011;30784;48.490;9.688;2023-06-04T09:27:25;7.45;;;2.63;;
45043;SDS011;30784;48.490;9.688;2023-06-04T09:29:53;6.35;;;2.35;;
45043;SDS011;30784;48.490;9.688;2023-06-04T09:32:24;6.80;;;2.47;;
45043;SDS011;30784;48.490;9.688;2023-06-04T09:34:51;6.45;;;2.42;;
45043;SDS011;30784;48.490;9.688;2023-06-04T09:37:18;7.68;;;2.72;;
45043;SDS011;30784;48.490;9.688;2023-06-04T09:39:44;7.15;;;2.40;;
45043;SDS011;30784;48.490;9.688;2023-06-04T09:42:23;7.03;;;2.50;;
45043;SDS011;30784;48.490;9.688;2023-06-04T09:44:49;7.45;;;2.28;;
45043;SDS011;30784;48.490;9.688;2023-06-04T09:47:15;6.22;;;2.20;;
45043;SDS011;30784;48.490;9.688;2023-06-04T09:49:44;7.38;;;2.10;;
45043;SDS011;30784;48.490;9.688;2023-06-04T09:52:11;6.30;;;2.45;;
45043;SDS011;30784;48.490;9.688;2023-06-04T09:54:38;6.43;;;2.33;;
45043;SDS011;30784;48.490;9.688;2023-06-04T09:57:25;6.30;;;2.45;;
45043;SDS011;30784;48.490;9.688;2023-06-04T09:59:50;6.57;;;2.20;;
45043;SDS011;30784;48.490;9.688;2023-06-04T10:02:19;6.32;;;2.20;;
45043;SDS011;30784;48.490;9.688;2023-06-04T10:04:49;6.90;;;2.22;;
45043;SDS011;30784;48.490;9.688;2023-06-04T10:07:26;6.05;;;2.22;;
45043;SDS011;30784;48.490;9.688;2023-06-04T10:09:52;6.93;;;2.50;;
45043;SDS011;30784;48.490;9.688;2023-06-04T10:12:29;7.63;;;2.90;;
45043;SDS011;30784;48.490;9.688;2023-06-04T10:15:02;7.45;;;3.05;;
45043;SDS011;30784;48.490;9.688;2023-06-04T10:17:30;7.45;;;3.10;;
45043;SDS011;30784;48.490;9.688;2023-06-04T10:19:58;6.85;;;2.60;;
45043;SDS011;30784;48.490;9.688;2023-06-04T10:22:27;6.00;;;2.15;;
45043;SDS011;30784;48.490;9.688;2023-06-04T10:24:54;5.30;;;2.22;;
45043;SDS011;30784;48.490;9.688;2023-06-04T10:27:19;6.57;;;2.30;;
45043;SDS011;30784;48.490;9.688;2023-06-04T10:29:47;5.63;;;2.55;;
45043;SDS011;30784;48.490;9.688;2023-06-04T10:32:14;6.03;;;2.10;;
45043;SDS011;30784;48.490;9.688;2023-06-04T10:34:40;7.68;;;2.70;;
45043;SDS011;30784;48.490;9.688;2023-06-04T10:37:05;6.47;;;2.70;;
45043;SDS011;30784;48.490;9.688;2023-06-04T10:39:32;6.13;;;2.30;;
45043;SDS011;30784;48.490;9.688;2023-06-04T10:42:01;9.40;;;2.50;;
45043;SDS011;30784;48.490;9.688;2023-06-04T10:44:27;7.10;;;2.65;;
45043;SDS011;30784;48.490;9.688;2023-06-04T10:46:54;5.88;;;2.65;;
45043;SDS011;30784;48.490;9.688;2023-06-04T10:49:28;7.47;;;2.83;;
45043;SDS011;30784;48.490;9.688;2023-06-04T10:51:54;6.20;;;2.35;;
45043;SDS011;30784;48.490;9.688;2023-06-04T10:54:24;7.05;;;2.75;;
45043;SDS011;30784;48.490;9.688;2023-06-04T10:56:51;7.30;;;2.95;;
45043;SDS011;30784;48.490;9.688;2023-06-04T10:59:18;6.97;;;3.00;;
45043;SDS011;30784;48.490;9.688;2023-06-04T11:01:44;6.22;;;2.80;;
45043;SDS011;30784;48.490;9.688;2023-06-04T11:04:23;6.30;;;2.70;;
45043;SDS011;30784;48.490;9.688;2023-06-04T11:07:08;6.63;;;3.05;;
45043;SDS011;30784;48.490;9.688;2023-06-04T11:09:34;8.63;;;3.75;;
45043;SDS011;30784;48.490;9.688;2023-06-04T11:12:12;8.05;;;3.00;;
45043;SDS011;30784;48.490;9.688;2023-06-04T11:14:37;7.55;;;3.00;;
45043;SDS011;30784;48.490;9.688;2023-06-04T11:17:10;6.60;;;3.10;;
45043;SDS011;30784;48.490;9.688;2023-06-04T11:19:36;6.13;;;2.63;;
45043;SDS011;30784;48.490;9.688;2023-06-04T11:22:02;6.80;;;3.15;;
45043;SDS011;30784;48.490;9.688;2023-06-04T11:24:28;7.10;;;3.85;;
45043;SDS011;30784;48.490;9.688;2023-06-04T11:26:55;6.70;;;3.10;;
45043;SDS011;30784;48.490;9.688;2023-06-04T11:29:24;6.82;;;3.10;;
45043;SDS011;30784;48.490;9.688;2023-06-04T11:31:50;7.35;;;2.92;;
45043;SDS011;30784;48.490;9.688;2023-06-04T11:34:29;6.47;;;2.88;;
45043;SDS011;30784;48.490;9.688;2023-06-04T11:37:06;7.10;;;3.17;;
45043;SDS011;30784;48.490;9.688;2023-06-04T11:39:35;6.18;;;2.85;;
45043;SDS011;30784;48.490;9.688;2023-06-04T11:42:06;7.05;;;2.90;;
45043;SDS011;30784;48.490;9.688;2023-06-04T11:44:32;7.45;;;2.80;;
45043;SDS011;30784;48.490;9.688;2023-06-04T11:46:58;6.45;;;2.90;;
45043;SDS011;30784;48.490;9.688;2023-06-04T11:49:24;6.60;;;2.65;;
45043;SDS011;30784;48.490;9.688;2023-06-04T11:51:52;6.28;;;2.50;;
45043;SDS011;30784;48.490;9.688;2023-06-04T11:54:18;6.20;;;2.75;;
45043;SDS011;30784;48.490;9.688;2023-06-04T11:56:45;6.35;;;2.78;;
45043;SDS011;30784;48.490;9.688;2023-06-04T11:59:13;8.35;;;2.80;;
45043;SDS011;30784;48.490;9.688;2023-06-04T12:01:41;8.43;;;3.65;;
45043;SDS011;30784;48.490;9.688;2023-06-04T12:04:14;6.97;;;3.15;;
45043;SDS011;30784;48.490;9.688;2023-06-04T12:06:53;6.43;;;2.80;;
45043;SDS011;30784;48.490;9.688;2023-06-04T12:09:25;7.43;;;3.40;;
45043;SDS011;30784;48.490;9.688;2023-06-04T12:11:58;7.25;;;3.05;;
45043;SDS011;30784;48.490;9.688;2023-06-04T12:14:25;7.10;;;2.88;;
45043;SDS011;30784;48.490;9.688;2023-06-04T12:17:09;6.32;;;3.00;;
45043;SDS011;30784;48.490;9.688;2023-06-04T12:19:47;7.88;;;3.30;;
45043;SDS011;30784;48.490;9.688;2023-06-04T12:22:14;6.97;;;3.10;;
45043;SDS011;30784;48.490;9.688;2023-06-04T12:24:52;8.30;;;3.20;;
45043;SDS011;30784;48.490;9.688;2023-06-04T12:27:19;6.60;;;3.00;;
45043;SDS011;30784;48.490;9.688;2023-06-04T12:29:59;6.95;;;2.75;;
45043;SDS011;30784;48.490;9.688;2023-06-04T12:32:26;6.90;;;3.03;;
45043;SDS011;30784;48.490;9.688;2023-06-04T12:34:52;6.53;;;2.63;;
45043;SDS011;30784;48.490;9.688;2023-06-04T12:37:17;6.60;;;2.90;;
45043;SDS011;30784;48.490;9.688;2023-06-04T12:39:43;7.13;;;3.08;;
45043;SDS011;30784;48.490;9.688;2023-06-04T12:42:09;6.53;;;3.15;;
45043;SDS011;30784;48.490;9.688;2023-06-04T12:44:35;8.10;;;3.30;;
45043;SDS011;30784;48.490;9.688;2023-06-04T12:47:01;6.90;;;3.20;;
45043;SDS011;30784;48.490;9.688;2023-06-04T12:49:27;6.97;;;3.00;;
45043;SDS011;30784;48.490;9.688;2023-06-04T12:51:53;7.45;;;3.30;;
45043;SDS011;30784;48.490;9.688;2023-06-04T12:54:18;6.43;;;3.00;;
45043;SDS011;30784;48.490;9.688;2023-06-04T12:56:44;8.02;;;3.50;;
45043;SDS011;30784;48.490;9.688;2023-06-04T12:59:10;6.43;;;3.00;;
45043;SDS011;30784;48.490;9.688;2023-06-04T13:01:36;8.60;;;3.03;;
45043;SDS011;30784;48.490;9.688;2023-06-04T13:04:02;7.30;;;2.67;;
45043;SDS011;30784;48.490;9.688;2023-06-04T13:06:28;7.32;;;2.70;;
45043;SDS011;30784;48.490;9.688;2023-06-04T13:08:54;6.43;;;2.90;;
45043;SDS011;30784;48.490;9.688;2023-06-04T13:11:20;6.45;;;2.65;;
45043;SDS011;30784;48.490;9.688;2023-06-04T13:13:46;6.85;;;2.90;;
45043;SDS011;30784;48.490;9.688;2023-06-04T13:16:12;7.55;;;2.60;;
45043;SDS011;30784;48.490;9.688;2023-06-04T13:18:38;6.78;;;2.70;;
45043;SDS011;30784;48.490;9.688;2023-06-04T13:21:03;5.88;;;2.42;;
45043;SDS011;30784;48.490;9.688;2023-06-04T13:23:29;7.50;;;2.92;;
45043;SDS011;30784;48.490;9.688;2023-06-04T13:25:54;5.63;;;2.55;;
45043;SDS011;30784;48.490;9.688;2023-06-04T13:28:20;5.93;;;2.47;;
45043;SDS011;30784;48.490;9.688;2023-06-04T13:30:45;6.78;;;2.65;;
45043;SDS011;30784;48.490;9.688;2023-06-04T13:33:11;7.85;;;2.83;;
45043;SDS011;30784;48.490;9.688;2023-06-04T13:35:37;7.10;;;2.95;;
45043;SDS011;30784;48.490;9.688;2023-06-04T13:38:05;7.30;;;2.90;;
45043;SDS011;30784;48.490;9.688;2023-06-04T13:40:33;6.50;;;2.88;;
45043;SDS011;30784;48.490;9.688;2023-06-04T13:42:59;7.15;;;2.85;;
45043;SDS011;30784;48.490;9.688;2023-06-04T13:45:25;6.15;;;2.65;;
45043;SDS011;30784;48.490;9.688;2023-06-04T13:47:50;6.60;;;2.80;;
45043;SDS011;30784;48.490;9.688;2023-06-04T13:50:16;6.32;;;2.60;;
45043;SDS011;30784;48.490;9.688;2023-06-04T13:52:42;7.13;;;3.00;;
45043;SDS011;30784;48.490;9.688;2023-06-04T13:55:07;6.05;;;2.40;;
45043;SDS011;30784;48.490;9.688;2023-06-04T13:57:33;6.93;;;2.95;;
45043;SDS011;30784;48.490;9.688;2023-06-04T13:59:59;6.97;;;2.80;;
45043;SDS011;30784;48.490;9.688;2023-06-04T14:02:25;6.53;;;2.80;;
45043;SDS011;30784;48.490;9.688;2023-06-04T14:04:52;6.90;;;2.80;;
45043;SDS011;30784;48.490;9.688;2023-06-04T14:07:19;6.03;;;2.78;;
45043;SDS011;30784;48.490;9.688;2023-06-04T14:09:45;7.97;;;2.83;;
45043;SDS011;30784;48.490;9.688;2023-06-04T14:12:10;7.28;;;2.75;;
45043;SDS011;30784;48.490;9.688;2023-06-04T14:14:36;6.55;;;2.80;;
45043;SDS011;30784;48.490;9.688;2023-06-04T14:17:02;5.82;;;2.72;;
45043;SDS011;30784;48.490;9.688;2023-06-04T14:19:29;6.85;;;2.70;;
45043;SDS011;30784;48.490;9.688;2023-06-04T14:21:55;6.45;;;2.65;;
45043;SDS011;30784;48.490;9.688;2023-06-04T14:24:21;6.53;;;2.75;;
45043;SDS011;30784;48.490;9.688;2023-06-04T14:26:46;6.07;;;2.60;;
45043;SDS011;30784;48.490;9.688;2023-06-04T14:29:12;6.28;;;2.45;;
45043;SDS011;30784;48.490;9.688;2023-06-04T14:31:38;6.13;;;2.55;;
45043;SDS011;30784;48.490;9.688;2023-06-04T14:34:04;5.55;;;2.40;;
45043;SDS011;30784;48.490;9.688;2023-06-04T14:36:31;5.75;;;2.35;;
45043;SDS011;30784;48.490;9.688;2023-06-04T14:38:56;6.38;;;2.63;;
45043;SDS011;30784;48.490;9.688;2023-06-04T14:41:22;5.75;;;2.42;;
45043;SDS011;30784;48.490;9.688;2023-06-04T14:43:47;6.50;;;2.65;;
45043;SDS011;30784;48.490;9.688;2023-06-04T14:46:13;6.35;;;2.53;;
45043;SDS011;30784;48.490;9.688;2023-06-04T14:48:39;5.65;;;2.40;;
45043;SDS011;30784;48.490;9.688;2023-06-04T14:51:04;6.05;;;2.70;;
45043;SDS011;30784;48.490;9.688;2023-06-04T14:53:30;5.90;;;2.50;;